Time;durP1;ratioP1;P1;durP2;ratioP2;P2;SDS_P1;SDS_P2;PMS_P1;PMS_P2;Temp;Humidity;BMP_temperature;BMP_pressure;BME280_temperature;BME280_humidity;BME280_pressure;Samples;Min_cycle;Max_cycle;Signal;HPM_P1;HPM_P2
2022/06/21 00:00:52;;;;;;;5.60;4.57;;;;;;;13.01;100.00;99052.72;5093946;28;20200;-80
2022/06/21 00:03:23;;;;;;;5.23;4.70;;;;;;;13.17;100.00;99059.44;5093511;28;20370;-80
2022/06/21 00:05:54;;;;;;;6.93;4.53;;;;;;;13.08;100.00;99064.63;5094670;28;20248;-79
2022/06/21 00:08:25;;;;;;;5.63;3.87;;;;;;;13.07;100.00;99065.56;5092705;28;20223;-80
2022/06/21 00:10:55;;;;;;;5.53;4.00;;;;;;;12.69;100.00;99068.44;5094714;28;20710;-80
2022/06/21 00:13:25;;;;;;;6.50;3.53;;;;;;;12.38;100.00;99070.69;5091800;28;20207;-80
2022/06/21 00:15:57;;;;;;;4.40;3.93;;;;;;;12.67;100.00;99073.03;5093703;28;20188;-80
2022/06/21 00:18:27;;;;;;;5.23;4.33;;;;;;;12.50;100.00;99067.16;5090514;28;20329;-80
2022/06/21 00:20:56;;;;;;;7.97;4.93;;;;;;;12.64;100.00;99074.09;5090562;28;20255;-80
2022/06/21 00:23:34;;;;;;;7.20;4.77;;;;;;;12.78;100.00;99081.06;5090265;28;20199;-80
2022/06/21 00:26:02;;;;;;;4.87;4.43;;;;;;;12.79;100.00;99080.09;5093897;28;20206;-80
2022/06/21 00:28:30;;;;;;;5.53;4.87;;;;;;;12.72;100.00;99076.19;5094730;28;20192;-79
2022/06/21 00:31:00;;;;;;;5.40;4.43;;;;;;;12.76;100.00;99085.66;5094181;28;20662;-80
2022/06/21 00:33:31;;;;;;;6.80;4.33;;;;;;;12.58;100.00;99088.69;5095363;27;20481;-80
2022/06/21 00:36:03;;;;;;;5.20;4.70;;;;;;;12.49;100.00;99085.84;5094142;28;20302;-80
2022/06/21 00:38:34;;;;;;;6.93;4.33;;;;;;;12.53;100.00;99090.81;5092935;28;20235;-80
2022/06/21 00:41:07;;;;;;;5.90;3.93;;;;;;;12.68;100.00;99086.19;5090713;28;20203;-80
2022/06/21 00:43:40;;;;;;;4.70;3.37;;;;;;;12.52;100.00;99085.63;5096640;27;20222;-80
2022/06/21 00:46:26;;;;;;;6.33;4.27;;;;;;;12.76;100.00;99075.00;5091360;28;20203;-80
2022/06/21 00:48:56;;;;;;;6.57;5.00;;;;;;;12.87;100.00;99081.22;5094936;28;20199;-82
2022/06/21 00:51:31;;;;;;;6.90;5.73;;;;;;;12.86;100.00;99079.53;5094156;28;20200;-80
2022/06/21 00:54:03;;;;;;;7.70;4.50;;;;;;;12.72;100.00;99081.50;5094140;28;20188;-80
2022/06/21 00:56:37;;;;;;;3.57;3.27;;;;;;;12.59;100.00;99082.41;5092295;28;20666;-80
2022/06/21 00:59:17;;;;;;;3.60;3.30;;;;;;;11.95;100.00;99087.03;5096098;27;20219;-80
2022/06/21 01:01:48;;;;;;;4.00;3.10;;;;;;;12.10;100.00;99087.78;5092932;28;20203;-80
2022/06/21 01:04:22;;;;;;;5.07;4.00;;;;;;;12.13;100.00;99092.00;5094072;28;20195;-80
2022/06/21 01:06:56;;;;;;;8.60;4.70;;;;;;;12.29;100.00;99087.31;5091445;28;20229;-80
2022/06/21 01:09:31;;;;;;;7.43;4.90;;;;;;;12.37;100.00;99090.25;5089862;28;20200;-80
2022/06/21 01:12:04;;;;;;;5.97;4.90;;;;;;;12.55;100.00;99090.72;5092128;28;20203;-80
2022/06/21 01:14:36;;;;;;;6.33;4.90;;;;;;;12.51;100.00;99087.44;5093585;28;20278;-81
2022/06/21 01:17:09;;;;;;;4.17;3.20;;;;;;;12.39;100.00;99087.50;5087224;28;20199;-80
2022/06/21 01:19:42;;;;;;;4.80;3.40;;;;;;;12.32;100.00;99085.25;5093370;28;20215;-80
2022/06/21 01:22:28;;;;;;;4.57;4.03;;;;;;;12.02;100.00;99083.00;5093611;28;20191;-80
2022/06/21 01:25:07;;;;;;;4.63;4.00;;;;;;;12.02;100.00;99088.31;5093551;28;20195;-80
2022/06/21 01:27:38;;;;;;;4.87;4.03;;;;;;;11.98;100.00;99100.13;5093634;28;20255;-79
2022/06/21 01:30:08;;;;;;;4.33;3.93;;;;;;;11.70;100.00;99087.91;5090478;28;20196;-80
2022/06/21 01:32:37;;;;;;;6.13;4.17;;;;;;;11.90;100.00;99097.16;5090819;28;20203;-79
2022/06/21 01:35:12;;;;;;;5.43;4.33;;;;;;;11.67;100.00;99108.47;5089381;28;20310;-80
2022/06/21 01:37:42;;;;;;;6.30;4.60;;;;;;;11.62;100.00;99113.25;5091643;28;20203;-80
2022/06/21 01:40:14;;;;;;;10.30;5.10;;;;;;;11.83;100.00;99098.53;5091820;28;20219;-80
2022/06/21 01:42:47;;;;;;;9.60;6.00;;;;;;;11.99;100.00;99103.63;5089543;28;20191;-79
2022/06/21 01:45:21;;;;;;;10.33;6.63;;;;;;;11.92;100.00;99097.03;5093564;28;20198;-80
2022/06/21 01:47:53;;;;;;;10.43;6.23;;;;;;;12.03;100.00;99103.28;5089850;28;20191;-80
2022/06/21 01:50:23;;;;;;;10.93;6.43;;;;;;;11.97;100.00;99098.44;5096494;28;20657;-80
2022/06/21 01:52:53;;;;;;;12.17;5.80;;;;;;;12.13;100.00;99092.00;5093615;28;20183;-79
2022/06/21 01:55:26;;;;;;;10.07;5.23;;;;;;;11.96;100.00;99104.66;5093027;28;20275;-80
2022/06/21 01:57:59;;;;;;;5.17;4.60;;;;;;;11.96;100.00;99096.69;5089265;28;20203;-80
2022/06/21 02:00:27;;;;;;;5.40;4.40;;;;;;;11.89;100.00;99090.16;5090754;28;20219;-80
2022/06/21 02:03:00;;;;;;;9.03;4.87;;;;;;;12.00;100.00;99095.53;5091612;28;20196;-80
2022/06/21 02:05:35;;;;;;;6.47;4.60;;;;;;;11.80;100.00;99093.44;5092976;28;20191;-81
2022/06/21 02:08:15;;;;;;;4.93;4.40;;;;;;;11.65;100.00;99084.72;5089213;28;20202;-79
2022/06/21 02:10:49;;;;;;;6.03;5.43;;;;;;;11.67;100.00;99084.59;5095963;28;20229;-80
2022/06/21 02:13:25;;;;;;;8.03;5.63;;;;;;;11.85;100.00;99077.19;5089097;28;20192;-80
2022/06/21 02:15:59;;;;;;;10.20;6.17;;;;;;;11.92;100.00;99075.81;5092943;28;20188;-80
2022/06/21 02:18:30;;;;;;;42.10;7.60;;;;;;;11.38;100.00;99078.66;5091661;28;20214;-80
2022/06/21 02:21:04;;;;;;;45.03;8.00;;;;;;;11.25;100.00;99080.44;5091194;28;20265;-80
2022/06/21 02:23:34;;;;;;;32.97;7.63;;;;;;;11.14;100.00;99087.34;5092657;28;20251;-80
2022/06/21 02:26:03;;;;;;;36.03;7.97;;;;;;;11.02;100.00;99079.38;5085010;28;20196;-80
2022/06/21 02:28:33;;;;;;;16.57;6.10;;;;;;;11.16;100.00;99073.97;5089456;28;20196;-80
2022/06/21 02:31:02;;;;;;;19.07;6.60;;;;;;;11.14;100.00;99083.84;5089942;28;20192;-80
2022/06/21 02:33:33;;;;;;;15.37;5.87;;;;;;;11.04;100.00;99088.91;5089038;28;20187;-79
2022/06/21 02:36:06;;;;;;;9.87;5.70;;;;;;;10.88;100.00;99089.06;5093115;28;20219;-80
2022/06/21 02:38:38;;;;;;;20.17;6.90;;;;;;;10.84;100.00;99092.88;5093074;28;20255;-81
2022/06/21 02:41:12;;;;;;;12.37;5.77;;;;;;;11.07;100.00;99091.34;5090368;28;20218;-79
2022/06/21 02:43:49;;;;;;;7.90;6.60;;;;;;;11.22;100.00;99085.97;5092839;28;20192;-80
2022/06/21 02:46:21;;;;;;;11.13;6.90;;;;;;;11.36;100.00;99094.66;5091440;28;20188;-80
2022/06/21 02:48:53;;;;;;;68.97;9.80;;;;;;;11.22;100.00;99096.56;5092403;28;20199;-79
2022/06/21 02:51:25;;;;;;;39.13;9.43;;;;;;;11.31;100.00;99094.16;5096043;28;20199;-80
2022/06/21 02:54:01;;;;;;;18.00;8.47;;;;;;;11.38;100.00;99087.44;5096375;28;20199;-80
2022/06/21 02:56:34;;;;;;;12.90;8.77;;;;;;;11.33;100.00;99088.75;5094892;28;20202;-80
2022/06/21 02:59:05;;;;;;;12.30;7.20;;;;;;;11.43;100.00;99089.81;5096552;28;20251;-80
2022/06/21 03:01:38;;;;;;;17.13;7.23;;;;;;;11.30;100.00;99094.25;5094710;28;20576;-80
2022/06/21 03:04:07;;;;;;;8.70;6.60;;;;;;;11.46;100.00;99092.25;5051412;28;20189;-80
2022/06/21 03:06:36;;;;;;;9.13;6.67;;;;;;;11.41;100.00;99086.41;5054209;28;20201;-80
2022/06/21 03:09:07;;;;;;;8.80;6.00;;;;;;;11.22;100.00;99078.88;5047340;28;20376;-80
2022/06/21 03:11:40;;;;;;;5.97;5.37;;;;;;;11.28;100.00;99074.94;5053754;28;20280;-79
2022/06/21 03:14:14;;;;;;;5.70;5.10;;;;;;;11.26;100.00;99074.19;5052401;28;20201;-80
2022/06/21 03:16:43;;;;;;;7.47;5.10;;;;;;;10.97;100.00;99071.72;5050196;28;20205;-80
2022/06/21 03:19:21;;;;;;;5.80;5.27;;;;;;;11.04;100.00;99062.41;5050886;28;20193;-80
2022/06/21 03:21:50;;;;;;;6.40;5.80;;;;;;;11.08;100.00;99053.28;5059464;28;20203;-80
2022/06/21 03:24:21;;;;;;;10.03;5.90;;;;;;;10.56;100.00;99061.22;5098191;27;20214;-80
2022/06/21 03:26:55;;;;;;;7.00;5.40;;;;;;;10.25;100.00;99060.56;5095143;28;20233;-80
2022/06/21 03:29:25;;;;;;;5.83;5.20;;;;;;;9.86;100.00;99065.69;5091095;28;20215;-80
2022/06/21 03:31:55;;;;;;;5.67;5.10;;;;;;;10.36;100.00;99064.31;5089569;28;20207;-80
2022/06/21 03:34:26;;;;;;;8.67;5.30;;;;;;;10.37;100.00;99063.34;5089601;28;20243;-80
2022/06/21 03:36:54;;;;;;;9.57;5.80;;;;;;;10.30;100.00;99058.44;5095394;28;20218;-80
2022/06/21 03:42:09;;;;;;;17.90;6.40;;;;;;;9.21;100.00;99081.16;5095187;28;20196;-79
2022/06/21 03:44:44;;;;;;;9.80;6.13;;;;;;;9.77;100.00;99069.78;5095391;28;20194;-79
2022/06/21 03:47:18;;;;;;;11.63;6.73;;;;;;;9.72;100.00;99075.31;5093914;28;20246;-80
2022/06/21 03:49:53;;;;;;;8.70;6.63;;;;;;;10.09;100.00;99086.25;5094551;28;20190;-80
2022/06/21 03:55:37;;;;;;;7.80;6.77;;;;;;;10.27;100.00;99084.28;5067657;28;20736;-79
2022/06/21 03:58:14;;;;;;;6.93;6.23;;;;;;;10.15;100.00;99085.88;5067158;27;20199;-79
2022/06/21 04:00:47;;;;;;;9.97;7.43;;;;;;;10.45;100.00;99080.44;5066536;28;20279;-79
2022/06/21 04:03:22;;;;;;;8.37;7.40;;;;;;;10.71;100.00;99081.41;5065622;28;20205;-79
2022/06/21 04:05:58;;;;;;;7.40;6.70;;;;;;;10.86;100.00;99095.44;5066992;28;20198;-79
2022/06/21 04:08:31;;;;;;;9.47;6.53;;;;;;;10.09;100.00;99094.19;5064216;28;20196;-79
2022/06/21 04:11:09;;;;;;;8.77;6.30;;;;;;;10.13;100.00;99089.56;5065639;28;20207;-79
2022/06/21 04:13:42;;;;;;;7.43;6.63;;;;;;;10.21;100.00;99090.78;5080510;27;20227;-79
2022/06/21 04:16:16;;;;;;;9.03;6.57;;;;;;;10.52;100.00;99088.84;5065922;28;20558;-79
2022/06/21 04:18:51;;;;;;;7.37;6.63;;;;;;;10.83;100.00;99096.50;5061410;28;20197;-79
2022/06/21 04:21:26;;;;;;;7.93;6.40;;;;;;;10.66;100.00;99094.09;5066616;28;20185;-79
2022/06/21 04:24:00;;;;;;;8.70;6.77;;;;;;;10.92;100.00;99102.97;5064042;28;20188;-79
2022/06/21 04:26:35;;;;;;;8.37;7.07;;;;;;;10.97;100.00;99107.97;5076350;27;20203;-79
2022/06/21 04:29:08;;;;;;;9.43;6.93;;;;;;;11.08;100.00;99101.00;5064025;28;20211;-79
2022/06/21 04:31:42;;;;;;;7.67;6.20;;;;;;;11.24;100.00;99090.22;5062784;28;20663;-79
2022/06/21 04:34:19;;;;;;;7.17;6.30;;;;;;;11.41;100.00;99081.97;5066240;28;20222;-79
2022/06/21 04:36:51;;;;;;;9.07;6.07;;;;;;;11.36;100.00;99077.91;5062209;28;20231;-80
2022/06/21 04:39:26;;;;;;;7.23;6.20;;;;;;;11.52;100.00;99067.13;5065782;28;20279;-79
2022/06/21 04:42:02;;;;;;;7.87;5.90;;;;;;;11.61;100.00;99075.28;5061360;28;20200;-79
2022/06/21 04:44:35;;;;;;;8.73;6.00;;;;;;;11.48;100.00;99077.06;5079943;27;20659;-79
2022/06/21 04:47:11;;;;;;;9.77;5.57;;;;;;;11.51;100.00;99070.72;5065150;28;20276;-79
2022/06/21 04:49:43;;;;;;;8.37;5.30;;;;;;;11.73;100.00;99074.41;5066434;28;20200;-79
2022/06/21 04:52:18;;;;;;;9.27;5.13;;;;;;;11.67;100.00;99061.56;5065053;28;20212;-79
2022/06/21 04:54:46;;;;;;;7.87;5.50;;;;;;;11.63;100.00;99062.75;5064670;28;20227;-79
2022/06/21 04:57:21;;;;;;;10.67;5.23;;;;;;;11.63;100.00;99062.75;5062551;28;20196;-79
2022/06/21 04:59:52;;;;;;;8.97;5.60;;;;;;;11.76;100.00;99054.75;5072945;27;20204;-79
2022/06/21 05:02:24;;;;;;;8.73;5.00;;;;;;;11.91;100.00;99050.22;5069240;27;20188;-79
2022/06/21 05:04:58;;;;;;;8.60;5.53;;;;;;;11.78;100.00;99047.56;5063196;28;20197;-78
2022/06/21 05:07:33;;;;;;;10.30;5.67;;;;;;;11.83;100.00;99056.06;5053092;28;20261;-79
2022/06/21 05:10:02;;;;;;;7.70;5.83;;;;;;;11.65;100.00;99060.84;5034328;28;20208;-79
2022/06/21 05:12:37;;;;;;;7.50;5.50;;;;;;;11.77;100.00;99053.81;5058662;28;20193;-80
2022/06/21 05:15:13;;;;;;;7.43;5.60;;;;;;;11.72;100.00;99062.09;5057005;28;20215;-80
2022/06/21 05:17:45;;;;;;;8.73;6.20;;;;;;;11.68;100.00;99063.28;5060222;27;20216;-80
2022/06/21 05:20:18;;;;;;;6.83;5.60;;;;;;;11.71;100.00;99068.38;5059168;28;20252;-79
2022/06/21 05:22:50;;;;;;;8.93;5.83;;;;;;;11.78;100.00;99070.59;5074531;27;20194;-79
2022/06/21 05:25:24;;;;;;;7.13;6.23;;;;;;;11.89;100.00;99079.53;5056195;28;20201;-80
2022/06/21 05:28:00;;;;;;;9.23;6.33;;;;;;;11.81;100.00;99073.06;5055792;28;20196;-79
2022/06/21 05:30:39;;;;;;;11.87;6.47;;;;;;;11.95;100.00;99080.88;5051203;28;20208;-79
2022/06/21 05:33:17;;;;;;;9.40;6.70;;;;;;;12.05;100.00;99084.59;5052069;27;20197;-78
2022/06/21 05:35:46;;;;;;;10.37;6.90;;;;;;;12.21;100.00;99082.53;5048056;28;20245;-79
2022/06/21 05:38:21;;;;;;;7.80;6.87;;;;;;;12.40;100.00;99078.56;5055210;28;20213;-81
2022/06/21 05:40:55;;;;;;;8.90;6.27;;;;;;;12.54;100.00;99079.22;5049579;28;20189;-80
2022/06/21 05:43:38;;;;;;;8.83;6.50;;;;;;;12.65;100.00;99077.63;5055040;28;20200;-80
2022/06/21 05:46:13;;;;;;;8.33;6.57;;;;;;;12.74;100.00;99088.41;5051882;28;20193;-80
2022/06/21 05:48:45;;;;;;;8.63;6.33;;;;;;;12.88;100.00;99080.25;5051917;28;20209;-79
2022/06/21 05:51:17;;;;;;;9.17;6.57;;;;;;;13.02;100.00;99083.66;5052064;28;20196;-79
2022/06/21 05:53:50;;;;;;;7.57;6.00;;;;;;;13.29;100.00;99088.75;5051828;28;20577;-79
2022/06/21 05:56:21;;;;;;;8.73;6.20;;;;;;;13.42;100.00;99087.72;5052083;28;20228;-79
2022/06/21 05:58:57;;;;;;;9.77;6.40;;;;;;;13.43;100.00;99088.56;5044795;28;20197;-79
2022/06/21 06:01:30;;;;;;;8.50;5.93;;;;;;;13.69;100.00;99078.53;5050399;28;20208;-79
2022/06/21 06:04:05;;;;;;;8.93;5.83;;;;;;;13.71;100.00;99074.81;5046720;28;20189;-78
2022/06/21 06:06:36;;;;;;;7.17;5.50;;;;;;;13.84;100.00;99071.19;5113138;28;20242;-78
2022/06/21 06:09:10;;;;;;;6.20;4.97;;;;;;;14.08;100.00;99055.06;5110427;28;20284;-79
2022/06/21 06:12:00;;;;;;;9.67;5.20;;;;;;;14.14;100.00;99049.25;5113000;28;20199;-78
2022/06/21 06:14:38;;;;;;;6.57;5.17;;;;;;;14.30;100.00;99063.88;5113087;28;20402;-78
2022/06/21 06:17:20;;;;;;;10.67;5.10;;;;;;;14.25;100.00;99067.88;5110703;28;20199;-79
2022/06/21 06:19:55;;;;;;;7.30;5.07;;;;;;;14.35;100.00;99065.31;5112977;28;20198;-78
2022/06/21 06:22:28;;;;;;;8.27;4.97;;;;;;;14.51;100.00;99068.47;5076494;28;20190;-79
2022/06/21 06:25:02;;;;;;;9.50;5.20;;;;;;;14.72;100.00;99063.19;5076160;28;20284;-79
2022/06/21 06:27:39;;;;;;;9.07;4.90;;;;;;;14.88;100.00;99069.78;5046610;28;20195;-79
2022/06/21 06:30:14;;;;;;;11.00;5.27;;;;;;;15.08;100.00;99065.47;5051199;28;20276;-79
2022/06/21 06:32:48;;;;;;;7.97;5.07;;;;;;;15.13;100.00;99065.91;5044230;28;20197;-79
2022/06/21 06:35:21;;;;;;;7.50;4.80;;;;;;;15.10;100.00;99065.31;5051089;28;20804;-78
2022/06/21 06:37:50;;;;;;;6.77;4.43;;;;;;;15.23;100.00;99067.78;5051454;28;20208;-79
2022/06/21 06:40:25;;;;;;;9.07;4.77;;;;;;;15.32;100.00;99064.34;5049737;28;20207;-79
2022/06/21 06:43:02;;;;;;;8.23;4.67;;;;;;;15.53;100.00;99073.19;5051652;28;20272;-79
2022/06/21 06:45:35;;;;;;;5.63;4.40;;;;;;;15.77;100.00;99064.09;5047745;28;20207;-79
2022/06/21 06:48:14;;;;;;;7.77;4.33;;;;;;;15.73;100.00;99061.69;5049997;28;20194;-79
2022/06/21 06:50:47;;;;;;;7.67;4.80;;;;;;;15.67;100.00;99061.38;5129485;27;20319;-79
2022/06/21 06:53:20;;;;;;;5.23;4.20;;;;;;;15.75;100.00;99064.22;5132561;27;20222;-79
2022/06/21 06:55:59;;;;;;;4.80;3.80;;;;;;;15.74;100.00;99062.53;5132906;27;20282;-79
2022/06/21 06:58:35;;;;;;;8.87;4.03;;;;;;;15.88;100.00;99061.31;5130021;27;20202;-78
2022/06/21 07:01:13;;;;;;;6.67;4.30;;;;;;;16.14;100.00;99061.72;5125469;27;20186;-79
2022/06/21 07:03:47;;;;;;;7.27;4.00;;;;;;;16.35;100.00;99049.09;5129281;27;20190;-79
2022/06/21 07:06:21;;;;;;;6.23;3.80;;;;;;;16.59;100.00;99051.38;5130420;27;20194;-79
2022/06/21 07:08:58;;;;;;;11.13;3.90;;;;;;;16.69;100.00;99051.41;5051446;28;20280;-79
2022/06/21 07:11:31;;;;;;;7.90;3.70;;;;;;;16.69;100.00;99036.22;5032124;28;20747;-79
2022/06/21 07:14:01;;;;;;;6.13;3.50;;;;;;;17.10;100.00;99028.91;5048846;28;20280;-79
2022/06/21 07:16:35;;;;;;;5.90;3.37;;;;;;;16.87;100.00;99029.19;5045454;28;20268;-79
2022/06/21 07:19:04;;;;;;;7.00;3.23;;;;;;;17.08;100.00;99034.41;5046911;28;20656;-79
2022/06/21 07:21:33;;;;;;;8.13;3.30;;;;;;;17.22;100.00;99034.94;5047575;28;20205;-79
2022/06/21 07:24:01;;;;;;;7.17;3.10;;;;;;;17.12;100.00;99037.63;5048974;28;20189;-78
2022/06/21 07:26:34;;;;;;;5.20;3.00;;;;;;;17.43;100.00;99035.59;5047665;28;20197;-78
2022/06/21 07:29:09;;;;;;;4.60;2.90;;;;;;;17.61;100.00;99033.00;5047678;28;20291;-79
2022/06/21 07:31:44;;;;;;;6.87;3.10;;;;;;;17.63;100.00;99036.38;5048001;28;20196;-79
2022/06/21 07:34:18;;;;;;;8.30;3.27;;;;;;;17.94;100.00;99034.31;5051458;28;20199;-79
2022/06/21 07:36:50;;;;;;;5.27;2.60;;;;;;;17.98;100.00;99027.69;5048163;28;20216;-80
2022/06/21 07:39:26;;;;;;;8.10;3.23;;;;;;;17.74;100.00;99029.03;5064779;28;20197;-79
2022/06/21 07:42:01;;;;;;;7.37;3.10;;;;;;;17.73;100.00;99027.34;5111238;28;20199;-79
2022/06/21 07:44:34;;;;;;;6.73;3.10;;;;;;;18.04;100.00;99024.41;5110944;28;20225;-80
2022/06/21 07:47:10;;;;;;;6.90;3.20;;;;;;;18.38;100.00;99030.00;5108959;28;20195;-79
2022/06/21 07:49:44;;;;;;;6.20;3.03;;;;;;;18.25;100.00;99025.00;5111470;28;20215;-80
2022/06/21 07:52:34;;;;;;;8.67;3.10;;;;;;;18.09;100.00;99019.44;5112755;28;20197;-79
2022/06/21 07:55:13;;;;;;;7.30;3.27;;;;;;;18.27;100.00;99020.34;5057165;28;20236;-78
2022/06/21 07:57:47;;;;;;;4.57;3.00;;;;;;;18.22;100.00;99019.94;5045921;28;20278;-78
2022/06/21 08:00:19;;;;;;;4.73;3.03;;;;;;;18.31;100.00;99015.50;5050130;28;20189;-79
2022/06/21 08:08:45;;;;;;;4.57;2.40;;;;;;;18.47;100.00;99004.13;5049914;28;20201;-79
2022/06/21 08:11:17;;;;;;;4.77;2.43;;;;;;;18.90;100.00;99013.25;5049892;28;20360;-80
2022/06/21 08:13:48;;;;;;;5.00;2.53;;;;;;;18.92;100.00;99014.81;5050131;28;20196;-79
2022/06/21 08:16:22;;;;;;;6.47;2.93;;;;;;;18.58;100.00;99011.94;5048504;28;20223;-80
2022/06/21 08:19:01;;;;;;;4.50;2.27;;;;;;;19.06;100.00;99016.09;5047031;28;20461;-80
2022/06/21 08:21:38;;;;;;;5.53;2.60;;;;;;;18.02;100.00;99015.66;5049785;28;20193;-80
2022/06/21 08:24:12;;;;;;;6.83;2.70;;;;;;;18.23;100.00;99018.09;5050066;28;20214;-80
2022/06/21 08:26:45;;;;;;;7.50;3.00;;;;;;;18.65;100.00;99020.25;5047804;28;20207;-80
2022/06/21 08:29:22;;;;;;;4.63;2.70;;;;;;;19.12;100.00;99010.94;5043205;28;20189;-80
2022/06/21 08:31:56;;;;;;;4.13;2.30;;;;;;;19.56;100.00;98996.66;5048594;28;20212;-80
2022/06/21 08:34:35;;;;;;;5.53;2.80;;;;;;;19.49;100.00;98998.25;5049766;28;20644;-80
2022/06/21 08:37:09;;;;;;;5.13;2.83;;;;;;;19.71;100.00;98995.06;5055754;27;20221;-80
2022/06/21 08:39:43;;;;;;;5.80;2.70;;;;;;;19.96;100.00;98996.00;5052373;28;20673;-80
2022/06/21 08:42:45;;;;;;;5.10;2.63;;;;;;;20.02;100.00;98995.38;5053013;28;20197;-80
2022/06/21 08:45:42;;;;;;;4.77;2.93;;;;;;;19.85;97.81;98982.84;5032464;28;20204;-80
2022/06/21 08:48:59;;;;;;;4.87;2.73;;;;;;;19.83;98.11;98976.81;5049411;28;20208;-80
2022/06/21 08:52:08;;;;;;;5.33;2.20;;;;;;;19.93;90.74;98969.44;5053193;28;20199;-80
2022/06/21 08:54:47;;;;;;;5.30;2.50;;;;;;;20.39;87.06;98961.84;5050091;27;20235;-80
2022/06/21 08:57:23;;;;;;;4.70;2.30;;;;;;;20.27;86.44;98958.66;5049060;28;20216;-79
2022/06/21 09:00:08;;;;;;;6.30;2.43;;;;;;;20.66;84.49;98944.59;5052728;28;20275;-79
2022/06/21 09:02:58;;;;;;;4.97;2.40;;;;;;;20.65;87.91;98941.03;5101764;28;20189;-80
2022/06/21 09:05:41;;;;;;;5.23;2.33;;;;;;;20.43;85.99;98947.09;5056021;28;20193;-80
2022/06/21 09:08:44;;;;;;;9.90;2.70;;;;;;;20.43;88.05;98926.41;5054146;28;20204;-80
2022/06/21 09:11:29;;;;;;;5.13;2.40;;;;;;;20.85;89.12;98912.78;5067410;28;20667;-80
2022/06/21 09:14:18;;;;;;;5.93;2.27;;;;;;;21.05;87.90;98907.88;5032351;28;20192;-79
2022/06/21 09:16:54;;;;;;;4.13;2.33;;;;;;;21.17;86.81;98891.34;5051365;28;20213;-80
2022/06/21 09:19:36;;;;;;;5.53;2.20;;;;;;;21.75;84.75;98898.25;5052245;28;20250;-80
2022/06/21 09:22:15;;;;;;;4.03;2.00;;;;;;;21.26;80.34;98876.84;5051871;28;20200;-80
2022/06/21 09:24:52;;;;;;;7.90;2.13;;;;;;;21.34;85.27;98861.53;5052468;28;20674;-79
2022/06/21 09:27:26;;;;;;;5.27;2.10;;;;;;;21.32;86.58;98868.09;5052821;28;20254;-80
2022/06/21 09:30:08;;;;;;;7.37;2.10;;;;;;;21.61;79.69;98880.94;5051821;28;20193;-79
2022/06/21 09:32:49;;;;;;;3.67;2.10;;;;;;;21.36;77.72;98872.13;5050025;28;20239;-80
2022/06/21 09:35:32;;;;;;;4.47;2.00;;;;;;;21.66;76.64;98870.50;5052194;28;20228;-80
2022/06/21 09:38:17;;;;;;;6.13;2.40;;;;;;;21.80;76.17;98863.50;5049354;28;20225;-80
2022/06/21 09:40:52;;;;;;;4.07;1.90;;;;;;;21.93;80.27;98847.59;5049883;28;20193;-80
2022/06/21 09:43:33;;;;;;;3.53;1.73;;;;;;;21.91;80.55;98822.66;5050081;28;20196;-80
2022/06/21 09:46:09;;;;;;;2.70;2.03;;;;;;;21.86;78.08;98803.47;5049754;28;20200;-79
2022/06/21 09:48:48;;;;;;;4.50;2.00;;;;;;;22.03;79.03;98799.66;5093161;28;20188;-80
2022/06/21 09:51:44;;;;;;;4.77;1.87;;;;;;;21.97;77.42;98820.06;5092435;28;20219;-79
2022/06/21 09:54:26;;;;;;;4.53;2.07;;;;;;;22.03;78.52;98847.34;5085838;28;20230;-79
2022/06/21 09:57:08;;;;;;;5.97;1.90;;;;;;;21.89;74.94;98878.59;5084550;28;20227;-79
2022/06/21 09:59:44;;;;;;;4.70;1.90;;;;;;;22.43;74.37;98882.16;5092969;28;20191;-79
2022/06/21 10:02:22;;;;;;;4.83;2.03;;;;;;;22.17;76.22;98884.38;5087092;28;20708;-79
2022/06/21 10:05:04;;;;;;;3.73;1.90;;;;;;;22.41;75.57;98876.13;5089234;28;20237;-79
2022/06/21 10:07:48;;;;;;;3.92;2.08;;;;;;;22.92;73.98;98860.16;5085437;28;20197;-79
2022/06/21 10:10:33;;;;;;;2.95;2.25;;;;;;;22.94;74.73;98870.78;5048990;28;20201;-79
2022/06/21 10:13:16;;;;;;;4.80;1.80;;;;;;;23.03;73.17;98875.91;5051522;28;20200;-79
2022/06/21 10:15:51;;;;;;;2.60;2.00;;;;;;;23.46;71.69;98876.13;5044052;28;20372;-79
2022/06/21 10:18:52;;;;;;;3.95;1.90;;;;;;;23.05;71.64;98876.56;5049777;28;20217;-78
2022/06/21 10:21:56;;;;;;;3.53;2.07;;;;;;;23.09;71.57;98864.38;5049461;27;20200;-79
2022/06/21 10:24:49;;;;;;;4.05;1.85;;;;;;;23.50;74.28;98873.88;5049889;28;20203;-79
2022/06/21 10:27:47;;;;;;;3.88;1.80;;;;;;;23.70;70.93;98877.69;5017708;28;20199;-79
2022/06/21 10:30:54;;;;;;;4.65;1.70;;;;;;;24.08;62.45;98875.66;5050926;28;20197;-79
2022/06/21 10:33:52;;;;;;;3.55;2.03;;;;;;;23.75;64.44;98875.28;5075048;28;20196;-79
2022/06/21 10:36:49;;;;;;;4.45;2.22;;;;;;;23.69;63.83;98881.44;5050781;28;20194;-79
2022/06/21 10:39:34;;;;;;;3.85;1.75;;;;;;;23.07;66.92;98879.09;5033006;28;20635;-78
2022/06/21 10:45:21;;;;;;;4.80;1.83;;;;;;;22.58;70.81;98876.81;5050791;28;20201;-79
2022/06/21 10:48:18;;;;;;;3.92;1.92;;;;;;;23.21;70.53;98870.16;5047768;28;20200;-79
2022/06/21 10:50:57;;;;;;;2.55;2.00;;;;;;;23.34;68.77;98874.88;5042298;28;20201;-79
2022/06/21 10:53:57;;;;;;;4.13;1.98;;;;;;;24.10;68.44;98865.47;5050390;28;20269;-79
2022/06/21 11:03:23;;;;;;;4.68;2.40;;;;;;;24.38;61.53;98846.63;5007844;28;20258;-80
2022/06/21 11:06:02;;;;;;;2.42;1.80;;;;;;;24.86;57.77;98849.50;5051563;28;20197;-81
2022/06/21 11:08:43;;;;;;;3.92;1.67;;;;;;;25.06;57.16;98852.38;5053827;28;20197;-80
2022/06/21 11:11:20;;;;;;;3.38;1.85;;;;;;;24.97;57.51;98850.84;5050892;28;20227;-80
2022/06/21 11:13:57;;;;;;;3.03;1.80;;;;;;;24.94;60.76;98838.53;5054307;28;20220;-80
2022/06/21 11:16:40;;;;;;;2.53;1.80;;;;;;;24.94;60.17;98837.69;5050037;28;20222;-80
2022/06/21 11:19:21;;;;;;;4.35;1.90;;;;;;;25.20;58.90;98835.19;5043005;28;20510;-80
2022/06/21 11:22:03;;;;;;;5.47;1.98;;;;;;;26.04;56.48;98837.63;5046120;28;20193;-81
2022/06/21 11:24:45;;;;;;;4.68;1.65;;;;;;;25.70;54.08;98835.84;5050402;28;20593;-80
2022/06/21 11:27:20;;;;;;;5.68;1.70;;;;;;;25.64;56.50;98829.31;5054049;28;20201;-80
2022/06/21 11:29:57;;;;;;;3.55;2.10;;;;;;;25.88;54.26;98825.28;5048104;28;20224;-80
2022/06/21 11:32:34;;;;;;;5.45;1.90;;;;;;;25.55;54.82;98827.81;5049464;28;20202;-81
2022/06/21 11:35:19;;;;;;;4.75;1.80;;;;;;;25.55;54.41;98827.81;5044076;28;20262;-80
2022/06/21 11:38:03;;;;;;;3.00;1.90;;;;;;;25.57;55.47;98822.19;5048914;28;20217;-80
2022/06/21 11:40:40;;;;;;;5.22;1.80;;;;;;;25.39;55.09;98822.78;5048673;28;20189;-79
2022/06/21 11:43:24;;;;;;;3.90;1.92;;;;;;;25.05;58.70;98824.44;5050581;28;20211;-79
2022/06/21 11:46:09;;;;;;;3.83;1.88;;;;;;;25.67;55.92;98825.38;5044795;28;20220;-79
2022/06/21 11:49:01;;;;;;;5.47;1.80;;;;;;;25.78;58.85;98824.00;5048208;28;20224;-78
2022/06/21 11:51:53;;;;;;;3.53;1.73;;;;;;;25.75;59.33;98818.97;5050423;28;20193;-78
2022/06/21 11:54:27;;;;;;;4.28;1.88;;;;;;;26.09;55.79;98807.16;5053563;28;20240;-80
2022/06/21 11:57:10;;;;;;;3.45;1.70;;;;;;;26.07;56.62;98806.53;5050452;28;20192;-79
2022/06/21 11:59:47;;;;;;;2.97;1.65;;;;;;;25.91;56.98;98799.59;5049001;28;20215;-79
2022/06/21 12:02:22;;;;;;;4.60;1.75;;;;;;;25.63;52.11;98794.28;5048872;28;20213;-79
2022/06/21 12:04:59;;;;;;;2.70;1.65;;;;;;;25.40;56.04;98795.44;5050168;28;20188;-79
2022/06/21 12:07:37;;;;;;;2.20;1.50;;;;;;;25.27;53.28;98791.81;5049767;28;20200;-79
2022/06/21 12:10:15;;;;;;;4.00;1.63;;;;;;;25.19;52.64;98791.97;5048222;28;20193;-79
2022/06/21 12:12:56;;;;;;;2.75;1.30;;;;;;;24.90;54.17;98782.19;5047121;28;20207;-79
2022/06/21 12:15:44;;;;;;;5.05;1.67;;;;;;;25.02;53.17;98767.09;5048757;28;20188;-79
2022/06/21 12:18:16;;;;;;;3.67;1.80;;;;;;;24.92;54.51;98770.16;5049941;28;20221;-77
2022/06/21 12:20:51;;;;;;;2.80;1.73;;;;;;;25.02;54.52;98765.22;5050001;28;20197;-77
2022/06/21 12:23:29;;;;;;;2.03;1.52;;;;;;;25.20;53.39;98770.13;5051396;28;20203;-78
2022/06/21 12:25:57;;;;;;;3.88;1.90;;;;;;;25.47;53.63;98757.47;5053007;28;20215;-77
2022/06/21 12:28:30;;;;;;;2.97;1.70;;;;;;;25.03;54.78;98772.31;5065642;27;20228;-78
2022/06/21 12:31:03;;;;;;;6.53;1.60;;;;;;;25.51;55.21;98760.63;5051434;28;20200;-78